Terminal Aerodrome Forecast
Issued by NWS La Crosse, WI

Home | Current Version | Previous Version | Text Only | Print | Product List | Glossary On
Versions: 1 2 3 4 5 6 7 8 9 10 11 12 13 14 15 16 17 18 19 20 21 22 23 24 25 26 27 28 29 30 31 32 33 34 35
000
FTUS43 KARX 280953 AAA
TAFLSE
TAF AMD
KLSE 280953Z 2810/2906 16006KT P6SM VCSH BKN090
     FM281500 14005KT P6SM -SHRA OVC060
     FM281800 12009KT 5SM SHRA OVC020
     FM290400 09005KT 3SM BR VCSH OVC012=

USA.gov is the U.S. government's official web portal to all federal, state and local government web resources and services.